Etusivu
METAR-TAF:

METAR-TAF

Lentoasemat :

Murmanskin lentoasema

Murmansk, Venäjä

Leveyspiiri: 68-58N, Pituuspiiri: 033-03E, korkeus merenpinnasta: 51 m

Tämänhetkinen sää

Tämä raportti tehtiin 31 minuuttia sitten, kello 20.30 UTC
Tuuli 6 kn lännestä
Lämpötila 7°C
Kosteus 76%
Ilmanpaine 999 hPa
Näkyvyys 10 km tai enemmän
Hajonneita pilviä 1800 ft:n korkeudessa

METAR: ULMM 182030Z 27003MPS 9999 BKN018 07/03 Q0999 R31/090070 NOSIG RMK QFE742

Aika: 00:01 (21:01 UTC)


TAF: puuttuu

Säähavainnot ja -ennusteet yli 4000 lentoasemalta (METAR- ja TAF-raportit).

Käytössä olevat sääasemat on merkitty karttaan keltaisilla ja punaisilla pisteillä.

Aseta hiiri pisteen päälle nähdäksesi sääaseman nimen.

Klikkaa sitten nähdäksesi säähavainnot ja -ennusteet.

Kartan vaihtaminen: klikkaa mustalla rastilla varustettuja vihreitä pisteitä, niin voit zoomata sisään; viivalla varustettua vihreää pistettä, niin voit zoomata ulos tai vihreitä nuolia, niin pääset viereisille kartoille.


METAR-TAF: